createdAt,value
2023-01-30T00:01:06.069Z,46.2
2023-01-30T00:06:07.318Z,46.1
2023-01-30T00:11:06.174Z,43.4
2023-01-30T00:16:06.129Z,45.0
2023-01-30T00:21:06.115Z,40.0
2023-01-30T00:26:06.285Z,41.3
2023-01-30T00:31:06.217Z,38.9
2023-01-30T00:36:06.045Z,42.0
2023-01-30T00:41:06.075Z,37.3
2023-01-30T00:46:06.137Z,41.1
2023-01-30T00:51:06.044Z,41.6
2023-01-30T00:56:06.149Z,44.2
2023-01-30T01:01:06.066Z,38.0
2023-01-30T01:06:06.019Z,38.9
2023-01-30T01:11:06.143Z,37.9
2023-01-30T01:16:06.083Z,38.8
2023-01-30T01:21:06.058Z,35.3
2023-01-30T01:26:06.123Z,33.7
2023-01-30T01:31:06.041Z,37.5
2023-01-30T01:36:06.012Z,34.7
2023-01-30T01:41:06.285Z,31.4
2023-01-30T01:46:05.980Z,29.0
2023-01-30T01:51:05.910Z,33.3
2023-01-30T01:56:06.067Z,32.0
2023-01-30T02:01:06.005Z,27.3
2023-01-30T02:06:05.949Z,29.8
2023-01-30T02:11:06.568Z,31.1
2023-01-30T02:16:06.059Z,35.6
2023-01-30T02:21:05.884Z,31.9
2023-01-30T02:26:05.849Z,33.0
2023-01-30T02:31:28.919Z,30.6
2023-01-30T02:36:05.848Z,34.0
2023-01-30T02:41:05.864Z,34.3
2023-01-30T02:46:05.823Z,30.1
2023-01-30T02:51:05.820Z,27.6
2023-01-30T02:56:05.987Z,26.6
2023-01-30T03:01:05.871Z,23.1
2023-01-30T03:06:05.712Z,26.6
2023-01-30T03:11:05.923Z,33.5
2023-01-30T03:16:05.825Z,42.2
2023-01-30T03:21:05.740Z,36.8
2023-01-30T03:26:05.664Z,26.8
2023-01-30T03:31:05.804Z,31.2
2023-01-30T03:36:05.694Z,24.4
2023-01-30T03:41:05.882Z,29.6
2023-01-30T03:46:05.647Z,25.1
2023-01-30T03:51:05.627Z,26.7
2023-01-30T03:56:05.694Z,23.9
2023-01-30T04:01:05.778Z,24.8
2023-01-30T04:06:16.087Z,42.5
2023-01-30T04:11:05.660Z,22.6
2023-01-30T04:16:05.837Z,28.9
2023-01-30T04:21:05.564Z,24.0
2023-01-30T04:26:05.780Z,23.6
2023-01-30T04:31:05.796Z,20.4
2023-01-30T04:36:05.628Z,20.7
2023-01-30T04:41:05.603Z,23.2
2023-01-30T04:46:05.834Z,19.7
2023-01-30T04:51:05.627Z,23.4
2023-01-30T04:56:05.579Z,21.7
2023-01-30T05:01:05.678Z,20.7
2023-01-30T05:06:05.616Z,20.4
2023-01-30T05:11:05.543Z,20.5
2023-01-30T05:16:05.709Z,24.1
2023-01-30T05:21:05.485Z,22.8
2023-01-30T05:26:05.569Z,22.7
2023-01-30T05:31:05.732Z,22.7
2023-01-30T05:36:05.438Z,23.7
2023-01-30T05:41:05.449Z,23.9
2023-01-30T05:46:05.620Z,25.9
2023-01-30T05:51:05.476Z,23.1
2023-01-30T05:56:05.386Z,21.9
2023-01-30T06:01:05.576Z,22.8
2023-01-30T06:06:05.453Z,26.0
2023-01-30T06:11:05.409Z,21.5
2023-01-30T06:16:05.363Z,23.9
2023-01-30T06:21:05.412Z,23.3
2023-01-30T06:26:07.421Z,25.1
2023-01-30T06:31:05.665Z,25.5
2023-01-30T06:36:05.319Z,24.1
2023-01-30T06:41:05.350Z,27.5
2023-01-30T06:46:05.919Z,25.6
2023-01-30T06:51:05.302Z,29.4
2023-01-30T06:56:05.332Z,31.3
2023-01-30T07:01:05.541Z,30.7
2023-01-30T07:06:05.276Z,27.5
2023-01-30T07:11:05.298Z,27.9
2023-01-30T07:16:05.402Z,26.7
2023-01-30T07:21:05.284Z,27.7
2023-01-30T07:26:05.205Z,28.7
2023-01-30T07:31:05.436Z,27.5
2023-01-30T07:36:05.222Z,25.9
2023-01-30T07:41:05.225Z,28.7
2023-01-30T07:46:05.380Z,33.3
2023-01-30T07:51:05.226Z,30.3
2023-01-30T07:56:05.237Z,29.9
2023-01-30T08:01:05.501Z,30.7
2023-01-30T08:06:05.238Z,35.9
2023-01-30T08:11:05.253Z,32.6
2023-01-30T08:16:05.668Z,36.8
2023-01-30T08:21:05.234Z,29.0
2023-01-30T08:26:05.122Z,29.1
2023-01-30T08:31:05.434Z,33.3
2023-01-30T08:36:05.214Z,34.7
2023-01-30T08:41:05.514Z,33.9
2023-01-30T08:46:05.167Z,57.6
2023-01-30T08:51:05.196Z,66.3
2023-01-30T08:56:05.364Z,55.7
2023-01-30T09:01:05.230Z,37.2
2023-01-30T09:06:05.157Z,40.5
2023-01-30T09:11:05.274Z,40.8
2023-01-30T09:16:05.147Z,40.8
2023-01-30T09:21:05.051Z,50.5
2023-01-30T09:26:05.432Z,37.1
2023-01-30T09:31:05.239Z,33.0
2023-01-30T09:36:05.163Z,33.3
2023-01-30T09:41:05.024Z,27.3
2023-01-30T09:46:05.272Z,28.9
2023-01-30T09:51:05.063Z,28.6
2023-01-30T09:56:05.055Z,40.0
2023-01-30T10:01:05.075Z,29.1
2023-01-30T10:06:05.064Z,28.5
2023-01-30T10:11:10.161Z,49.1
2023-01-30T10:16:05.098Z,30.1
2023-01-30T10:21:05.004Z,30.8
2023-01-30T10:26:05.019Z,31.8
2023-01-30T10:31:05.212Z,30.2
2023-01-30T10:36:05.228Z,42.9
2023-01-30T10:41:04.886Z,38.0
2023-01-30T10:46:04.878Z,32.9
2023-01-30T10:51:05.111Z,38.0
2023-01-30T10:56:05.876Z,34.4
2023-01-30T11:01:04.858Z,36.0
2023-01-30T11:06:06.260Z,38.0
2023-01-30T11:11:08.711Z,36.2
2023-01-30T11:16:09.842Z,40.1
2023-01-30T11:21:11.095Z,44.1
2023-01-30T11:26:11.392Z,37.8
2023-01-30T11:31:04.859Z,34.8
2023-01-30T11:36:05.502Z,32.0
2023-01-30T11:41:04.852Z,35.0
2023-01-30T11:46:04.938Z,33.4
2023-01-30T11:51:04.803Z,34.4
2023-01-30T11:56:08.577Z,40.6
2023-01-30T12:01:04.965Z,39.8
2023-01-30T12:06:04.868Z,41.4
2023-01-30T12:11:04.801Z,37.8
2023-01-30T12:16:04.720Z,41.8
2023-01-30T12:21:04.777Z,35.9
2023-01-30T12:26:04.792Z,40.1
2023-01-30T12:31:04.869Z,38.8
2023-01-30T12:36:04.736Z,37.7
2023-01-30T12:41:04.709Z,36.8
2023-01-30T12:46:05.098Z,45.7
2023-01-30T12:51:04.792Z,40.7
2023-01-30T12:56:04.711Z,43.2
2023-01-30T13:01:04.653Z,47.0
2023-01-30T13:11:04.905Z,42.3
2023-01-30T13:16:04.695Z,49.6
2023-01-30T13:21:04.557Z,49.5
2023-01-30T13:26:04.620Z,44.6
2023-01-30T13:31:04.591Z,52.3
2023-01-30T13:36:04.718Z,46.2
2023-01-30T13:41:05.946Z,47.7
2023-01-30T13:46:04.567Z,43.8
2023-01-30T13:51:04.535Z,44.0
2023-01-30T13:56:06.585Z,41.5
2023-01-30T14:01:04.664Z,42.7
2023-01-30T14:06:04.660Z,37.6
2023-01-30T14:11:06.086Z,42.2
2023-01-30T14:16:04.707Z,45.8
2023-01-30T14:21:06.450Z,46.1
2023-01-30T14:26:04.581Z,117.4
2023-01-30T14:31:04.704Z,57.2
2023-01-30T14:36:04.765Z,56.3
2023-01-30T14:41:04.584Z,50.0
2023-01-30T14:46:07.281Z,51.9
2023-01-30T14:51:04.754Z,46.4
2023-01-30T14:56:04.489Z,45.1
2023-01-30T15:01:05.402Z,68.9
2023-01-30T15:06:04.539Z,111.1
2023-01-30T15:11:04.469Z,47.9
2023-01-30T15:16:04.475Z,56.3
2023-01-30T15:21:04.440Z,49.4
2023-01-30T15:26:04.530Z,51.0
2023-01-30T15:31:04.713Z,44.7
2023-01-30T15:36:04.331Z,46.3
2023-01-30T15:41:04.359Z,49.8
2023-01-30T15:46:04.576Z,80.7
2023-01-30T15:51:04.333Z,55.0
2023-01-30T15:56:04.459Z,40.8
2023-01-30T16:01:04.502Z,39.5
2023-01-30T16:06:04.325Z,40.5
2023-01-30T16:11:04.375Z,36.4
2023-01-30T16:16:04.777Z,41.5
2023-01-30T16:21:04.348Z,32.1
2023-01-30T16:26:04.390Z,47.4
2023-01-30T16:31:04.702Z,29.0
2023-01-30T16:36:04.434Z,33.3
2023-01-30T16:41:04.247Z,40.5
2023-01-30T16:56:04.462Z,29.3
2023-01-30T17:31:36.575Z,41.2
2023-01-30T17:56:47.053Z,42.2
2023-01-30T18:07:10.916Z,56.3
2023-01-30T18:21:58.925Z,325.1
2023-01-30T18:52:22.848Z,60.0
2023-01-30T19:42:28.494Z,51.5
2023-01-30T19:47:32.570Z,51.0
2023-01-30T19:52:32.541Z,43.7
2023-01-30T19:57:43.880Z,64.5
2023-01-30T20:12:33.053Z,41.5
2023-01-30T20:17:32.539Z,37.2
2023-01-30T20:22:32.841Z,48.0
2023-01-30T20:27:37.282Z,50.3
2023-01-30T20:32:33.231Z,80.4
2023-01-30T20:42:33.175Z,65.6
2023-01-30T20:47:32.421Z,60.1
2023-01-30T20:52:32.443Z,55.3
2023-01-30T21:02:34.169Z,52.2
2023-01-30T21:07:32.432Z,60.7
2023-01-30T21:12:32.392Z,91.9
2023-01-30T21:17:32.388Z,61.4
2023-01-30T21:22:32.473Z,37.2
2023-01-30T21:27:32.419Z,39.3
2023-01-30T21:32:32.351Z,38.7
2023-01-30T21:37:33.247Z,65.0
2023-01-30T21:42:33.026Z,413.7
2023-01-30T21:47:33.122Z,984.4
2023-01-30T21:52:32.332Z,143.3
2023-01-30T21:57:32.980Z,91.0
2023-01-30T22:02:32.303Z,105.1
2023-01-30T22:07:33.027Z,77.5
2023-01-30T22:12:33.011Z,342.2
2023-01-30T22:17:32.967Z,609.9
2023-01-30T22:22:33.069Z,361.5
2023-01-30T22:27:32.983Z,503.9
2023-01-30T22:32:32.987Z,174.2
2023-01-30T22:37:32.926Z,221.9
2023-01-30T22:42:32.939Z,135.9
2023-01-30T22:47:32.983Z,202.1
2023-01-30T22:52:32.362Z,121.5
2023-01-30T22:57:32.932Z,91.8
2023-01-30T23:02:32.949Z,324.5
2023-01-30T23:07:32.913Z,755.1
2023-01-30T23:12:32.919Z,630.5
2023-01-30T23:17:32.907Z,265.2
2023-01-30T23:22:32.893Z,202.1
2023-01-30T23:27:33.172Z,124.9
2023-01-30T23:32:32.290Z,102.5
2023-01-30T23:37:32.950Z,72.8
2023-01-30T23:42:32.115Z,174.1
2023-01-30T23:47:32.135Z,96.4
2023-01-30T23:52:32.168Z,85.8
2023-01-30T23:57:32.189Z,79.4
